PORTS® Data Listing: 8454049 Quonset Point, RI

CO-OPS RAW PORTS DATA

************************      PRELIMINARY DATA      ************************** 

     THIS RAW DATA HAS NOT BEEN SUBJECT TO THE NATIONAL OCEAN SERVICE'S        
     QUALITY CONTROL OR QUALITY ASSURANCE PROCEDURES AND DOES NOT MEET         
     THE CRITERIA AND STANDARDS OF OFFICIAL NATIONAL OCEAN SERVICE             
     DATA.  IT IS RELEASED FOR LIMITED PUBLIC USE AS PRELIMINARY DATA TO       
     BE USED ONLY WITH APPROPRIATE CAUTION.                                    

************************      PRELIMINARY DATA      ************************** 


       CD   -   Calendar date
       T    -   Time
       TZ   -   Timezone
       PW   -   Predicted water level (feet above MLLW)
       OW   -   Observed water level (feet above MLLW)
       WS   -   Wind speed (knots)
       WD   -   Wind direction (degrees true)
       WG   -   Wind gust (knots)
       AT   -   Air temperature (degrees farenheit)
       WT   -   Water temperature (degrees farenheit)
       AP   -   Air pressure (millibars)
       SA   -   Salinty (PSU - Practical Salinity Units)
       SG   -   Specific gravity
       RH   -   Relative humidity
       AG   -   Air gap (feet)
       VI   -   Visibility (nautical miles)

       ** NOTE **
       A variable that has its data fields filled with "9"s, indicates that
       data was not collected for that sample period.
       **********


STATION NAME: Quonset Point (8454049)
****************************************************************************************************
    CD       T    TZ    PW     OW    WS   WD   WG    AT    WT    AP    SA    SG     RH    AG   VI
****************************************************************************************************
2020/02/24 10:12 EST    2.86   3.46   10  179   11  43.7  39.6 1018.4 22.1  1.018 -99.9 -99.99 -9.99
2020/02/24 10:18 EST    2.76   3.36   11  178   12  43.7  39.6 1018.4 22.1  1.018 -99.9 -99.99 -9.99
2020/02/24 10:24 EST    2.65   3.25   12  176   13  43.7  39.6 1018.3 22.1  1.018 -99.9 -99.99 -9.99
2020/02/24 10:30 EST    2.54   3.12   11  176   12  43.7  39.6 1018.3 22.1  1.018 -99.9 -99.99 -9.99
2020/02/24 10:36 EST    2.42   3.01   11  179   13  43.9  39.6 1018.3 22.0  1.018 -99.9 -99.99 -9.99
2020/02/24 10:42 EST    2.30   2.88   12  181   13  44.2  39.6 1018.3 22.0  1.018 -99.9 -99.99 -9.99
2020/02/24 10:48 EST    2.18   2.76   13  178   15  45.0  39.6 1018.3 22.0  1.018 -99.9 -99.99 -9.99
2020/02/24 10:54 EST    2.06   2.64   14  176   15  45.0  39.6 1018.3 22.0  1.018 -99.9 -99.99 -9.99
2020/02/24 11:00 EST    1.94   2.48   14  175   16  45.0  39.6 1018.2 22.0  1.018 -99.9 -99.99 -9.99
2020/02/24 11:06 EST    1.82   2.35   15  174   16  44.8  39.6 1018.1 21.9  1.018 -99.9 -99.99 -9.99
2020/02/24 11:12 EST    1.70   2.21   15  173   16  44.2  39.6 1018.0 22.0  1.018 -99.9 -99.99 -9.99
2020/02/24 11:18 EST    1.57   2.09   14  173   16  44.6  39.6 1018.0 22.0  1.018 -99.9 -99.99 -9.99
2020/02/24 11:24 EST    1.45   1.98   15  175   16  44.4  39.6 1018.0 22.0  1.018 -99.9 -99.99 -9.99
2020/02/24 11:30 EST    1.33   1.86   14  175   16  44.4  39.6 1018.0 22.1  1.018 -99.9 -99.99 -9.99
2020/02/24 11:36 EST    1.22   1.75   14  176   16  44.2  39.6 1018.0 22.1  1.018 -99.9 -99.99 -9.99
2020/02/24 11:42 EST    1.10   1.61   14  174   15  44.2  39.6 1018.0 22.0  1.018 -99.9 -99.99 -9.99
2020/02/24 11:48 EST    0.99   1.49   14  174   16  44.2  39.6 1017.9 22.0  1.018 -99.9 -99.99 -9.99
2020/02/24 11:54 EST    0.88   1.36   15  172   16  44.4  39.6 1017.7 22.0  1.018 -99.9 -99.99 -9.99
2020/02/24 12:00 EST    0.78   1.25   15  171   16  44.4  39.6 1017.6 22.0  1.018 -99.9 -99.99 -9.99
2020/02/24 12:06 EST    0.68   1.15   15  170   16  44.4  39.7 1017.4 21.9  1.018 -99.9 -99.99 -9.99
2020/02/24 12:12 EST    0.59   1.01   16  174   17  44.6  39.7 1017.2 21.9  1.018 -99.9 -99.99 -9.99
2020/02/24 12:18 EST    0.50   0.90   16  175   17  44.8  39.6 1017.1 22.0  1.018 -99.9 -99.99 -9.99
2020/02/24 12:24 EST    0.41   0.84   16  174   17  44.8  39.9 1017.0 21.9  1.018 -99.9 -99.99 -9.99
2020/02/24 12:30 EST    0.33   0.76   16  176   18  44.8  39.9 1017.0 21.9  1.018 -99.9 -99.99 -9.99
2020/02/24 12:36 EST    0.26   0.67   17  176   18  45.0  39.9 1016.8 21.9  1.018 -99.9 -99.99 -9.99
2020/02/24 12:42 EST    0.19   0.61   16  178   18  44.8  39.9 1016.8 21.9  1.018 -99.9 -99.99 -9.99
2020/02/24 12:48 EST    0.13   0.56   16  176   17  44.8  39.9 1016.8 21.9  1.018 -99.9 -99.99 -9.99
2020/02/24 12:54 EST    0.07   0.51   15  174   17  45.0  40.1 1016.7 21.9  1.018 -99.9 -99.99 -9.99
2020/02/24 13:00 EST    0.02   0.44   16  173   18  45.0  40.1 1016.7 21.9  1.018 -99.9 -99.99 -9.99
2020/02/24 13:06 EST   -0.02   0.41   15  174   17  45.0  40.1 1016.6 21.9  1.018 -99.9 -99.99 -9.99
2020/02/24 13:12 EST   -0.06   0.40   15  173   17  45.3  40.1 1016.7 21.9  1.018 -99.9 -99.99 -9.99
2020/02/24 13:18 EST   -0.09   0.37   15  174   17  45.1  39.9 1016.6 21.9  1.018 -99.9 -99.99 -9.99
2020/02/24 13:24 EST   -0.12   0.32   14  174   17  45.0  39.9 1016.5 21.9  1.018 -99.9 -99.99 -9.99
2020/02/24 13:30 EST   -0.14   0.31   13  173   15  45.3  39.9 1016.4 21.9  1.018 -99.9 -99.99 -9.99
2020/02/24 13:36 EST   -0.15   0.34   14  175   15  45.5  40.1 1016.3 21.9  1.018 -99.9 -99.99 -9.99
2020/02/24 13:42 EST   -0.16   0.33   15  178   17  45.9  40.1 1016.3 21.9  1.018 -99.9 -99.99 -9.99
2020/02/24 13:48 EST   -0.17   0.34   14  179   16  46.0  40.1 1016.4 21.9  1.018 -99.9 -99.99 -9.99
2020/02/24 13:54 EST   -0.17   0.37   15  175   17  45.9  40.1 1016.2 21.8  1.018 -99.9 -99.99 -9.99
2020/02/24 14:00 EST   -0.16   0.39   14  176   17  45.9  40.1 1016.3 21.8  1.018 -99.9 -99.99 -9.99
2020/02/24 14:06 EST   -0.15   0.41   16  177   17  45.7  40.1 1016.3 22.0  1.018 -99.9 -99.99 -9.99
2020/02/24 14:12 EST   -0.14   0.43   15  178   17  45.7  40.1 1016.2 22.0  1.018 -99.9 -99.99 -9.99
2020/02/24 14:18 EST   -0.12   0.45   12  186   17  46.4  40.3 1016.2 22.0  1.018 -99.9 -99.99 -9.99
2020/02/24 14:24 EST   -0.10   0.49   14  183   16  45.9  40.3 1016.2 21.7  1.018 -99.9 -99.99 -9.99
2020/02/24 14:30 EST   -0.08   0.49   14  180   16  45.7  40.3 1016.2 21.6  1.018 -99.9 -99.99 -9.99
2020/02/24 14:36 EST   -0.05   0.51   15  182   16  46.2  40.5 1016.2 21.4  1.018 -99.9 -99.99 -9.99
2020/02/24 14:42 EST   -0.02   0.57   16  180   17  45.1  40.5 1016.1 21.4  1.018 -99.9 -99.99 -9.99
2020/02/24 14:48 EST    0.01   0.60   14  185   16  45.9  40.3 1016.1 21.5  1.018 -99.9 -99.99 -9.99
2020/02/24 14:54 EST    0.05   0.61   14  201   15  48.9  40.5 1016.1 21.4  1.018 -99.9 -99.99 -9.99
2020/02/24 15:00 EST    0.08   0.64   13  200   17  49.1  40.5 1016.0 21.4  1.018 -99.9 -99.99 -9.99
2020/02/24 15:06 EST    0.12   0.67   16  204   17  50.4  40.5 1015.9 21.4  1.018 -99.9 -99.99 -9.99
2020/02/24 15:12 EST    0.16   0.72   14  207   16  50.4  40.5 1015.9 21.4  1.018 -99.9 -99.99 -9.99
2020/02/24 15:18 EST    0.20   0.74   15  201   18  50.5  40.5 1015.9 21.4  1.018 -99.9 -99.99 -9.99
2020/02/24 15:24 EST    0.25   0.82   14  204   17  50.5  40.5 1015.9 21.4  1.018 -99.9 -99.99 -9.99
2020/02/24 15:30 EST    0.29   0.91   15  200   17  50.7  40.5 1015.9 21.4  1.018 -99.9 -99.99 -9.99
2020/02/24 15:36 EST    0.34   0.94   10  207   14  48.7  40.6 1016.0 21.3  1.018 -99.9 -99.99 -9.99
2020/02/24 15:42 EST    0.39   1.00   10  187   11  46.9  40.5 1015.8 21.4  1.018 -99.9 -99.99 -9.99
2020/02/24 15:48 EST    0.44   1.03    9  216   13  48.9  40.5 1015.7 21.4  1.018 -99.9 -99.99 -9.99
2020/02/24 15:54 EST    0.49   1.11   11  209   18  51.1  40.5 1015.5 21.4  1.018 -99.9 -99.99 -9.99
2020/02/24 16:00 EST    0.54   1.19   10  202   12  49.3  40.5 1015.6 21.4  1.018 -99.9 -99.99 -9.99
2020/02/24 16:06 EST    0.60   1.21   13  176   15  46.2  40.5 1015.5 21.4  1.018 -99.9 -99.99 -9.99
2020/02/24 16:12 EST    0.66   1.22   13  182   15  45.9  40.5 1015.5 21.4  1.018 -99.9 -99.99 -9.99
2020/02/24 16:18 EST    0.72   1.27   13  182   15  45.7  40.5 1015.4 21.4  1.018 -99.9 -99.99 -9.99
2020/02/24 16:24 EST    0.78   1.32   13  180   15  45.3  40.5 1015.4 21.4  1.018 -99.9 -99.99 -9.99
2020/02/24 16:30 EST    0.84   1.38   13  178   14  45.3  40.5 1015.5 21.4  1.018 -99.9 -99.99 -9.99
2020/02/24 16:36 EST    0.90   1.48   13  180   15  44.8  40.5 1015.5 21.4  1.018 -99.9 -99.99 -9.99
2020/02/24 16:42 EST    0.97   1.58   14  180   16  44.8  40.5 1015.6 21.9  1.018 -99.9 -99.99 -9.99
2020/02/24 16:48 EST    1.04   1.66   13  182   14  44.6  40.5 1015.6 21.9  1.018 -99.9 -99.99 -9.99
2020/02/24 16:54 EST    1.11   1.70   13  182   14  44.2  40.6 1015.6 21.8  1.018 -99.9 -99.99 -9.99
2020/02/24 17:00 EST    1.19   1.80   12  182   13  43.9  40.6 1015.6 21.8  1.018 -99.9 -99.99 -9.99
2020/02/24 17:06 EST    1.26   1.88   13  181   14  43.7  40.6 1015.6 21.7  1.018 -99.9 -99.99 -9.99
2020/02/24 17:12 EST    1.34   1.96   13  181   14  43.5  40.5 1015.7 21.7  1.018 -99.9 -99.99 -9.99
2020/02/24 17:18 EST    1.42   2.01   12  180   14  43.3  40.6 1015.7 21.6  1.018 -99.9 -99.99 -9.99
2020/02/24 17:24 EST    1.50   2.09   12  181   14  43.3  40.5 1015.7 21.7  1.018 -99.9 -99.99 -9.99
2020/02/24 17:30 EST    1.59   2.18   12  184   13  43.3  40.5 1015.7 21.7  1.018 -99.9 -99.99 -9.99
2020/02/24 17:36 EST    1.67   2.23   11  181   12  43.0  40.5 1015.7 21.7  1.018 -99.9 -99.99 -9.99
2020/02/24 17:42 EST    1.76   2.33   12  181   13  43.2  40.5 1015.8 21.7  1.018 -99.9 -99.99 -9.99
2020/02/24 17:48 EST    1.85   2.42   11  181   12  42.8  40.5 1015.8 21.7  1.018 -99.9 -99.99 -9.99
2020/02/24 17:54 EST    1.94   2.49   11  181   12  43.0  40.5 1015.8 21.7  1.018 -99.9 -99.99 -9.99
2020/02/24 18:00 EST    2.03   2.59   10  180   11  42.6  40.5 1015.9 21.7  1.018 -99.9 -99.99 -9.99
2020/02/24 18:06 EST    2.13   2.71   11  177   11  42.6  40.5 1015.9 21.7  1.018 -99.9 -99.99 -9.99
2020/02/24 18:12 EST    2.22   2.81   10  183   11  42.6  40.5 1015.8 21.7  1.018 -99.9 -99.99 -9.99
2020/02/24 18:18 EST    2.31   2.90   10  182   10  42.6  40.5 1015.9 21.7  1.018 -99.9 -99.99 -9.99
2020/02/24 18:24 EST    2.40   3.00    9  182   10  42.3  40.5 1015.9 21.7  1.018 -99.9 -99.99 -9.99
2020/02/24 18:30 EST    2.50   3.08   10  184   11  42.4  40.5 1015.9 21.7  1.018 -99.9 -99.99 -9.99
2020/02/24 18:36 EST    2.59   3.16    9  179   10  42.1  40.5 1015.8 21.7  1.018 -99.9 -99.99 -9.99
2020/02/24 18:42 EST    2.68   3.25   10  179   11  42.3  40.5 1015.8 21.7  1.018 -99.9 -99.99 -9.99
2020/02/24 18:48 EST    2.76   3.35    9  183   10  41.9  40.5 1015.8 21.7  1.018 -99.9 -99.99 -9.99
2020/02/24 18:54 EST    2.85   3.42   11  200   12  43.3  40.5 1015.8 21.6  1.018 -99.9 -99.99 -9.99
2020/02/24 19:00 EST    2.94   3.47   11  200   11  43.7  40.5 1015.7 21.5  1.018 -99.9 -99.99 -9.99
2020/02/24 19:06 EST    3.02   3.54   11  199   11  43.7  40.6 1015.8 21.5  1.018 -99.9 -99.99 -9.99
2020/02/24 19:12 EST    3.10   3.61    8  188   11  42.4  40.6 1015.8 21.6  1.018 -99.9 -99.99 -9.99
2020/02/24 19:18 EST    3.17   3.67    8  188    9  42.1  40.6 1015.8 21.6  1.018 -99.9 -99.99 -9.99
2020/02/24 19:24 EST    3.25   3.76    7  187    9  42.1  40.8 1016.0 21.5  1.018 -99.9 -99.99 -9.99
2020/02/24 19:30 EST    3.31   3.83    8  203    9  43.0  40.8 1016.1 21.6  1.018 -99.9 -99.99 -9.99
2020/02/24 19:36 EST    3.38   3.88    7  211    8  43.0  40.8 1016.2 21.6  1.018 -99.9 -99.99 -9.99
2020/02/24 19:42 EST    3.44   3.96    7  206    8  43.2  40.8 1016.1 21.6  1.018 -99.9 -99.99 -9.99
2020/02/24 19:48 EST    3.49   4.03    6  199    7  43.0  40.6 1016.1 21.6  1.018 -99.9 -99.99 -9.99
2020/02/24 19:54 EST    3.54   4.09    5  197    6  42.6  40.5 1016.2 21.7  1.018 -99.9 -99.99 -9.99
2020/02/24 20:00 EST    3.59   4.09    5  199    6  42.8  40.6 1016.3 21.6  1.018 -99.9 -99.99 -9.99
2020/02/24 20:06 EST    3.63   4.12    4  213    6  42.8  40.5 1016.4 21.7  1.018 -99.9 -99.99 -9.99
2020/02/24 20:12 EST    3.66   4.15    4  230    5  42.6  40.5 1016.5 21.7  1.018 -99.9 -99.99 -9.99
2020/02/24 20:18 EST    3.69   4.14    5  228    6  43.0  40.5 1016.5 21.7  1.018 -99.9 -99.99 -9.99
2020/02/24 20:24 EST    3.71   4.12    6  224    6  43.0  40.5 1016.4 21.7  1.018 -99.9 -99.99 -9.99
2020/02/24 20:30 EST    3.73   4.12    5  215    6  42.6  40.5 1016.3 21.7  1.018 -99.9 -99.99 -9.99
2020/02/24 20:36 EST    3.74   4.15    5  210    5  42.4  40.5 1016.3 21.7  1.018 -99.9 -99.99 -9.99
2020/02/24 20:42 EST    3.74   4.16    5  201    5  42.4  40.5 1016.1 21.8  1.018 -99.9 -99.99 -9.99
2020/02/24 20:48 EST    3.74   4.16    5  190    6  42.6  40.5 1016.0 21.8  1.018 -99.9 -99.99 -9.99
2020/02/24 20:54 EST    3.73   4.15    6  162    7  42.3  40.5 1016.0 21.8  1.018 -99.9 -99.99 -9.99
2020/02/24 21:00 EST    3.71   4.15    6  175    8  42.8  40.5 1015.9 21.8  1.018 -99.9 -99.99 -9.99
2020/02/24 21:06 EST    3.69   4.13    6  179    6  42.6  40.5 1015.9 21.6  1.018 -99.9 -99.99 -9.99
2020/02/24 21:12 EST    3.66   4.11    6  185    6  42.4  40.3 1015.8 21.6  1.018 -99.9 -99.99 -9.99
2020/02/24 21:18 EST    3.63   4.09    6  189    7  42.3  40.3 1015.8 21.6  1.018 -99.9 -99.99 -9.99
2020/02/24 21:24 EST    3.58   4.03    6  186    7  42.3  40.3 1015.7 21.6  1.018 -99.9 -99.99 -9.99
2020/02/24 21:30 EST    3.54   3.98    7  189    7  42.3  40.3 1015.6 21.6  1.018 -99.9 -99.99 -9.99
2020/02/24 21:36 EST    3.48   3.94    6  196    7  42.1  40.3 1015.6 21.6  1.018 -99.9 -99.99 -9.99
2020/02/24 21:42 EST    3.42   3.88    5  199    6  41.9  40.3 1015.6 21.3  1.018 -99.9 -99.99 -9.99
2020/02/24 21:48 EST    3.36   3.82    6  194    6  41.9  40.3 1015.6 21.5  1.018 -99.9 -99.99 -9.99
2020/02/24 21:54 EST    3.29   3.75    5  196    6  41.7  40.1 1015.6 21.7  1.018 -99.9 -99.99 -9.99
2020/02/24 22:00 EST    3.21   3.69    5  190    6  41.7  40.1 1015.6 21.7  1.018 -99.9 -99.99 -9.99
2020/02/24 22:06 EST    3.13   3.62    6  188    6  41.9  40.1 1015.6 21.7  1.018 -99.9 -99.99 -9.99
2020/02/24 22:12 EST    3.04   3.55    6  188    6  41.7  40.1 1015.6 21.7  1.018 -99.9 -99.99 -9.99
2020/02/24 22:18 EST    2.95   3.47    5  186    6  41.7  40.1 1015.5 21.7  1.018 -99.9 -99.99 -9.99
2020/02/24 22:24 EST    2.85   3.36    5  184    6  41.5  40.1 1015.4 21.7  1.018 -99.9 -99.99 -9.99
2020/02/24 22:30 EST    2.75   3.24    5  183    6  41.7  40.1 1015.4 21.8  1.018 -99.9 -99.99 -9.99
2020/02/24 22:36 EST    2.64   3.16    6  189    7  41.9  40.1 1015.4 21.8  1.018 -99.9 -99.99 -9.99
2020/02/24 22:42 EST    2.53   3.10    6  184    7  41.9  40.1 1015.3 21.8  1.018 -99.9 -99.99 -9.99
2020/02/24 22:48 EST    2.42   3.03    5  182    6  41.9  39.9 1015.2 21.8  1.018 -99.9 -99.99 -9.99
2020/02/24 22:54 EST    2.31   2.93    5  175    5  41.7  39.9 1015.2 21.8  1.018 -99.9 -99.99 -9.99
2020/02/24 23:00 EST    2.19   2.80    5  165    5  41.5  39.9 1015.2 21.8  1.018 -99.9 -99.99 -9.99
2020/02/24 23:06 EST    2.07   2.70    4  164    5  41.5  39.9 1015.2 21.8  1.018 -99.9 -99.99 -9.99
2020/02/24 23:12 EST    1.95   2.61    3  172    4  41.5  39.9 1015.3 21.8  1.018 -99.9 -99.99 -9.99
2020/02/24 23:18 EST    1.83   2.50    3  181    4  41.5  39.9 1015.4 21.8  1.018 -99.9 -99.99 -9.99
2020/02/24 23:24 EST    1.71   2.37    4  180    4  41.5  39.9 1015.3 21.8  1.018 -99.9 -99.99 -9.99
2020/02/24 23:30 EST    1.59   2.25    4  176    4  41.7  39.9 1015.4 21.8  1.018 -99.9 -99.99 -9.99
2020/02/24 23:36 EST    1.47   2.15    4  175    4  41.7  39.9 1015.4 21.8  1.018 -99.9 -99.99 -9.99
2020/02/24 23:42 EST    1.35   2.05    4  166    4  41.7  39.9 1015.4 21.8  1.018 -99.9 -99.99 -9.99
2020/02/24 23:48 EST    1.23   1.95    4  177    5  41.9  39.9 1015.4 21.8  1.018 -99.9 -99.99 -9.99
2020/02/24 23:54 EST    1.11   1.84    3  195    4  41.7  39.9 1015.3 21.8  1.018 -99.9 -99.99 -9.99
2020/02/25 00:00 EST    1.00   1.74    2  201    4  41.7  40.1 1015.2 21.6  1.018 -99.9 -99.99 -9.99
2020/02/25 00:06 EST    0.89   1.64    4  185    5  41.9  40.1 1015.2 21.9  1.018 -99.9 -99.99 -9.99
2020/02/25 00:12 EST    0.78   1.55    5  192    5  42.3  40.3 1015.1 21.9  1.018 -99.9 -99.99 -9.99
2020/02/25 00:18 EST    0.68   1.45    4  196    5  42.3  40.3 1015.0 21.9  1.018 -99.9 -99.99 -9.99
2020/02/25 00:24 EST    0.58   1.36    3  202    5  42.4  40.3 1014.9 21.9  1.018 -99.9 -99.99 -9.99
2020/02/25 00:30 EST    0.48   1.27    4  184    5  42.3  40.6 1014.9 21.8  1.018 -99.9 -99.99 -9.99
2020/02/25 00:36 EST    0.39   1.16    6  183    6  42.6  40.6 1014.8 21.8  1.018 -99.9 -99.99 -9.99
2020/02/25 00:42 EST    0.31   1.05    6  176    7  42.4  40.8 1014.7 21.7  1.018 -99.9 -99.99 -9.99
2020/02/25 00:48 EST    0.23   0.98    6  166    7  42.4  40.8 1014.6 21.7  1.018 -99.9 -99.99 -9.99
2020/02/25 00:54 EST    0.16   0.93    7  175    8  42.4  40.8 1014.7 21.7  1.018 -99.9 -99.99 -9.99
2020/02/25 01:00 EST    0.09   0.84    8  179    9  42.4  40.8 1014.6 21.6  1.018 -99.9 -99.99 -9.99
2020/02/25 01:06 EST    0.03   0.77    9  180   10  42.4  40.8 1014.6 21.8  1.018 -99.9 -99.99 -9.99
2020/02/25 01:12 EST   -0.03   0.70   10  179   11  42.4  40.8 1014.5 21.9  1.018 -99.9 -99.99 -9.99
2020/02/25 01:18 EST   -0.08   0.62   10  183   11  42.4  40.8 1014.5 21.9  1.018 -99.9 -99.99 -9.99
2020/02/25 01:24 EST   -0.12   0.56   10  183   11  42.6  40.8 1014.3 21.9  1.018 -99.9 -99.99 -9.99
2020/02/25 01:30 EST   -0.16   0.52   10  185   11  42.6  40.6 1014.2 21.9  1.018 -99.9 -99.99 -9.99
2020/02/25 01:36 EST   -0.19   0.49    9  190   10  42.8  40.6 1014.1 21.9  1.018 -99.9 -99.99 -9.99
2020/02/25 01:42 EST   -0.21   0.47    9  190    9  42.6  40.6 1014.1 21.9  1.018 -99.9 -99.99 -9.99
2020/02/25 01:48 EST   -0.23   0.44    9  189   10  42.6  40.5 1014.0 22.0  1.018 -99.9 -99.99 -9.99
2020/02/25 01:54 EST   -0.24   0.41    9  186    9  42.6  40.5 1014.1 22.0  1.018 -99.9 -99.99 -9.99
2020/02/25 02:00 EST   -0.25   0.39    9  182   10  42.6  40.5 1014.0 22.0  1.018 -99.9 -99.99 -9.99
2020/02/25 02:06 EST   -0.25   0.41    8  179    9  42.6  40.5 1014.0 21.5  1.018 -99.9 -99.99 -9.99
2020/02/25 02:12 EST   -0.25   0.41    7  178    9  42.6  40.6 1013.9 21.5  1.018 -99.9 -99.99 -9.99
2020/02/25 02:18 EST   -0.24   0.40    9  197   10  43.5  40.5 1013.7 21.5  1.018 -99.9 -99.99 -9.99
2020/02/25 02:24 EST   -0.22   0.39   10  201   12  43.9  40.5 1013.7 21.6  1.018 -99.9 -99.99 -9.99
2020/02/25 02:30 EST   -0.21   0.41   10  205   11  44.1  40.6 1013.8 21.6  1.018 -99.9 -99.99 -9.99
2020/02/25 02:36 EST   -0.18   0.43    9  205   11  44.1  40.5 1013.7 21.7  1.018 -99.9 -99.99 -9.99
2020/02/25 02:42 EST   -0.16   0.47    8  207   10  43.9  40.5 1013.7 21.7  1.018 -99.9 -99.99 -9.99
2020/02/25 02:48 EST   -0.13   0.48   10  212   11  44.2  40.3 1013.8 21.7  1.018 -99.9 -99.99 -9.99
2020/02/25 02:54 EST   -0.10   0.47    7  213   10  44.4  40.5 1013.9 21.6  1.018 -99.9 -99.99 -9.99
2020/02/25 03:00 EST   -0.06   0.49    8  220    9  44.6  40.5 1013.9 21.7  1.018 -99.9 -99.99 -9.99
2020/02/25 03:06 EST   -0.02   0.52    8  220   11  44.8  40.5 1013.6 21.6  1.018 -99.9 -99.99 -9.99
2020/02/25 03:12 EST    0.02   0.57    9  227   13  45.0  40.5 1013.5 21.6  1.018 -99.9 -99.99 -9.99
2020/02/25 03:18 EST    0.06   0.60    8  214   10  45.0  40.5 1013.4 21.7  1.018 -99.9 -99.99 -9.99
2020/02/25 03:24 EST    0.11   0.66    9  215   10  44.8  40.5 1013.4 21.7  1.018 -99.9 -99.99 -9.99
2020/02/25 03:30 EST    0.15   0.73    9  208   13  44.8  40.6 1013.4 21.7  1.018 -99.9 -99.99 -9.99
2020/02/25 03:36 EST    0.20   0.79    8  214    9  44.8  40.6 1013.3 21.7  1.018 -99.9 -99.99 -9.99
2020/02/25 03:42 EST    0.25   0.83    8  205   11  44.6  40.6 1013.4 21.7  1.018 -99.9 -99.99 -9.99
2020/02/25 03:48 EST    0.31   0.86    9  211   10  44.4  40.6 1013.4 21.8  1.018 -99.9 -99.99 -9.99
2020/02/25 03:54 EST    0.36   0.94    9  211   11  44.6  40.6 1013.3 21.8  1.018 -99.9 -99.99 -9.99
2020/02/25 04:00 EST    0.41 -99.99 -999 -999 -999 -99.9 -99.9 -999.9 -9.9 -9.999 -99.9 -99.99 -9.99
2020/02/25 04:06 EST    0.47 -99.99 -999 -999 -999 -99.9 -99.9 -999.9 -9.9 -9.999 -99.9 -99.99 -9.99
2020/02/25 04:12 EST    0.53 -99.99 -999 -999 -999 -99.9 -99.9 -999.9 -9.9 -9.999 -99.9 -99.99 -9.99
2020/02/25 04:18 EST    0.59 -99.99 -999 -999 -999 -99.9 -99.9 -999.9 -9.9 -9.999 -99.9 -99.99 -9.99
2020/02/25 04:24 EST    0.65 -99.99 -999 -999 -999 -99.9 -99.9 -999.9 -9.9 -9.999 -99.9 -99.99 -9.99
2020/02/25 04:30 EST    0.71 -99.99 -999 -999 -999 -99.9 -99.9 -999.9 -9.9 -9.999 -99.9 -99.99 -9.99
2020/02/25 04:36 EST    0.77 -99.99 -999 -999 -999 -99.9 -99.9 -999.9 -9.9 -9.999 -99.9 -99.99 -9.99
2020/02/25 04:42 EST    0.84 -99.99 -999 -999 -999 -99.9 -99.9 -999.9 -9.9 -9.999 -99.9 -99.99 -9.99
2020/02/25 04:48 EST    0.90 -99.99 -999 -999 -999 -99.9 -99.9 -999.9 -9.9 -9.999 -99.9 -99.99 -9.99
2020/02/25 04:54 EST    0.97 -99.99 -999 -999 -999 -99.9 -99.9 -999.9 -9.9 -9.999 -99.9 -99.99 -9.99
2020/02/25 05:00 EST    1.04 -99.99 -999 -999 -999 -99.9 -99.9 -999.9 -9.9 -9.999 -99.9 -99.99 -9.99
2020/02/25 05:06 EST    1.11 -99.99 -999 -999 -999 -99.9 -99.9 -999.9 -9.9 -9.999 -99.9 -99.99 -9.99
2020/02/25 05:12 EST    1.18 -99.99 -999 -999 -999 -99.9 -99.9 -999.9 -9.9 -9.999 -99.9 -99.99 -9.99
2020/02/25 05:18 EST    1.26 -99.99 -999 -999 -999 -99.9 -99.9 -999.9 -9.9 -9.999 -99.9 -99.99 -9.99
2020/02/25 05:24 EST    1.33 -99.99 -999 -999 -999 -99.9 -99.9 -999.9 -9.9 -9.999 -99.9 -99.99 -9.99
2020/02/25 05:30 EST    1.41 -99.99 -999 -999 -999 -99.9 -99.9 -999.9 -9.9 -9.999 -99.9 -99.99 -9.99
2020/02/25 05:36 EST    1.49 -99.99 -999 -999 -999 -99.9 -99.9 -999.9 -9.9 -9.999 -99.9 -99.99 -9.99
2020/02/25 05:42 EST    1.57 -99.99 -999 -999 -999 -99.9 -99.9 -999.9 -9.9 -9.999 -99.9 -99.99 -9.99
2020/02/25 05:48 EST    1.65 -99.99 -999 -999 -999 -99.9 -99.9 -999.9 -9.9 -9.999 -99.9 -99.99 -9.99
2020/02/25 05:54 EST    1.74 -99.99 -999 -999 -999 -99.9 -99.9 -999.9 -9.9 -9.999 -99.9 -99.99 -9.99
2020/02/25 06:00 EST    1.82 -99.99 -999 -999 -999 -99.9 -99.9 -999.9 -9.9 -9.999 -99.9 -99.99 -9.99
2020/02/25 06:06 EST    1.91 -99.99 -999 -999 -999 -99.9 -99.9 -999.9 -9.9 -9.999 -99.9 -99.99 -9.99
2020/02/25 06:12 EST    1.99 -99.99 -999 -999 -999 -99.9 -99.9 -999.9 -9.9 -9.999 -99.9 -99.99 -9.99
2020/02/25 06:18 EST    2.08 -99.99 -999 -999 -999 -99.9 -99.9 -999.9 -9.9 -9.999 -99.9 -99.99 -9.99
2020/02/25 06:24 EST    2.17 -99.99 -999 -999 -999 -99.9 -99.9 -999.9 -9.9 -9.999 -99.9 -99.99 -9.99
2020/02/25 06:30 EST    2.26 -99.99 -999 -999 -999 -99.9 -99.9 -999.9 -9.9 -9.999 -99.9 -99.99 -9.99
2020/02/25 06:36 EST    2.35 -99.99 -999 -999 -999 -99.9 -99.9 -999.9 -9.9 -9.999 -99.9 -99.99 -9.99
2020/02/25 06:42 EST    2.44 -99.99 -999 -999 -999 -99.9 -99.9 -999.9 -9.9 -9.999 -99.9 -99.99 -9.99
2020/02/25 06:48 EST    2.52 -99.99 -999 -999 -999 -99.9 -99.9 -999.9 -9.9 -9.999 -99.9 -99.99 -9.99
2020/02/25 06:54 EST    2.61 -99.99 -999 -999 -999 -99.9 -99.9 -999.9 -9.9 -9.999 -99.9 -99.99 -9.99
2020/02/25 07:00 EST    2.70 -99.99 -999 -999 -999 -99.9 -99.9 -999.9 -9.9 -9.999 -99.9 -99.99 -9.99
2020/02/25 07:06 EST    2.78 -99.99 -999 -999 -999 -99.9 -99.9 -999.9 -9.9 -9.999 -99.9 -99.99 -9.99
2020/02/25 07:12 EST    2.86 -99.99 -999 -999 -999 -99.9 -99.9 -999.9 -9.9 -9.999 -99.9 -99.99 -9.99
2020/02/25 07:18 EST    2.94 -99.99 -999 -999 -999 -99.9 -99.9 -999.9 -9.9 -9.999 -99.9 -99.99 -9.99
2020/02/25 07:24 EST    3.02 -99.99 -999 -999 -999 -99.9 -99.9 -999.9 -9.9 -9.999 -99.9 -99.99 -9.99
2020/02/25 07:30 EST    3.09 -99.99 -999 -999 -999 -99.9 -99.9 -999.9 -9.9 -9.999 -99.9 -99.99 -9.99
2020/02/25 07:36 EST    3.17 -99.99 -999 -999 -999 -99.9 -99.9 -999.9 -9.9 -9.999 -99.9 -99.99 -9.99
2020/02/25 07:42 EST    3.23 -99.99 -999 -999 -999 -99.9 -99.9 -999.9 -9.9 -9.999 -99.9 -99.99 -9.99
2020/02/25 07:48 EST    3.30 -99.99 -999 -999 -999 -99.9 -99.9 -999.9 -9.9 -9.999 -99.9 -99.99 -9.99
2020/02/25 07:54 EST    3.36 -99.99 -999 -999 -999 -99.9 -99.9 -999.9 -9.9 -9.999 -99.9 -99.99 -9.99
2020/02/25 08:00 EST    3.42 -99.99 -999 -999 -999 -99.9 -99.9 -999.9 -9.9 -9.999 -99.9 -99.99 -9.99
2020/02/25 08:06 EST    3.47 -99.99 -999 -999 -999 -99.9 -99.9 -999.9 -9.9 -9.999 -99.9 -99.99 -9.99
2020/02/25 08:12 EST    3.52 -99.99 -999 -999 -999 -99.9 -99.9 -999.9 -9.9 -9.999 -99.9 -99.99 -9.99
2020/02/25 08:18 EST    3.56 -99.99 -999 -999 -999 -99.9 -99.9 -999.9 -9.9 -9.999 -99.9 -99.99 -9.99
2020/02/25 08:24 EST    3.60 -99.99 -999 -999 -999 -99.9 -99.9 -999.9 -9.9 -9.999 -99.9 -99.99 -9.99
2020/02/25 08:30 EST    3.63 -99.99 -999 -999 -999 -99.9 -99.9 -999.9 -9.9 -9.999 -99.9 -99.99 -9.99
2020/02/25 08:36 EST    3.65 -99.99 -999 -999 -999 -99.9 -99.9 -999.9 -9.9 -9.999 -99.9 -99.99 -9.99
2020/02/25 08:42 EST    3.68 -99.99 -999 -999 -999 -99.9 -99.9 -999.9 -9.9 -9.999 -99.9 -99.99 -9.99
2020/02/25 08:48 EST    3.69 -99.99 -999 -999 -999 -99.9 -99.9 -999.9 -9.9 -9.999 -99.9 -99.99 -9.99
2020/02/25 08:54 EST    3.70 -99.99 -999 -999 -999 -99.9 -99.9 -999.9 -9.9 -9.999 -99.9 -99.99 -9.99
2020/02/25 09:00 EST    3.70 -99.99 -999 -999 -999 -99.9 -99.9 -999.9 -9.9 -9.999 -99.9 -99.99 -9.99
2020/02/25 09:06 EST    3.70 -99.99 -999 -999 -999 -99.9 -99.9 -999.9 -9.9 -9.999 -99.9 -99.99 -9.99
2020/02/25 09:12 EST    3.69 -99.99 -999 -999 -999 -99.9 -99.9 -999.9 -9.9 -9.999 -99.9 -99.99 -9.99
2020/02/25 09:18 EST    3.68 -99.99 -999 -999 -999 -99.9 -99.9 -999.9 -9.9 -9.999 -99.9 -99.99 -9.99
2020/02/25 09:24 EST    3.66 -99.99 -999 -999 -999 -99.9 -99.9 -999.9 -9.9 -9.999 -99.9 -99.99 -9.99
2020/02/25 09:30 EST    3.63 -99.99 -999 -999 -999 -99.9 -99.9 -999.9 -9.9 -9.999 -99.9 -99.99 -9.99
2020/02/25 09:36 EST    3.60 -99.99 -999 -999 -999 -99.9 -99.9 -999.9 -9.9 -9.999 -99.9 -99.99 -9.99
2020/02/25 09:42 EST    3.56 -99.99 -999 -999 -999 -99.9 -99.9 -999.9 -9.9 -9.999 -99.9 -99.99 -9.99
2020/02/25 09:48 EST    3.51 -99.99 -999 -999 -999 -99.9 -99.9 -999.9 -9.9 -9.999 -99.9 -99.99 -9.99
2020/02/25 09:54 EST    3.46 -99.99 -999 -999 -999 -99.9 -99.9 -999.9 -9.9 -9.999 -99.9 -99.99 -9.99
2020/02/25 10:00 EST    3.41 -99.99 -999 -999 -999 -99.9 -99.9 -999.9 -9.9 -9.999 -99.9 -99.99 -9.99
2020/02/25 10:06 EST    3.35 -99.99 -999 -999 -999 -99.9 -99.9 -999.9 -9.9 -9.999 -99.9 -99.99 -9.99
2020/02/25 10:12 EST    3.28 -99.99 -999 -999 -999 -99.9 -99.9 -999.9 -9.9 -9.999 -99.9 -99.99 -9.99